createdAt,value
2019-02-06T00:02:51.626Z,3.66
2019-02-06T00:08:00.496Z,3.65
2019-02-06T00:13:09.662Z,3.57
2019-02-06T00:18:18.331Z,3.55
2019-02-06T00:23:37.037Z,3.52
2019-02-06T00:28:47.213Z,3.52
2019-02-06T00:33:59.756Z,3.51
2019-02-06T00:39:16.630Z,3.50
2019-02-06T00:44:31.973Z,3.61
2019-02-06T00:49:44.642Z,3.65
2019-02-06T00:54:56.292Z,3.53
2019-02-06T01:00:06.212Z,3.53
2019-02-06T01:05:18.698Z,3.47
2019-02-06T01:10:33.251Z,3.46
2019-02-06T01:15:44.434Z,3.43
2019-02-06T01:20:52.389Z,3.36
2019-02-06T01:26:04.540Z,3.37
2019-02-06T01:31:19.932Z,3.31
2019-02-06T01:36:33.448Z,3.34
2019-02-06T01:41:47.188Z,3.39
2019-02-06T01:46:59.332Z,3.34
2019-02-06T01:52:13.814Z,3.31
2019-02-06T01:57:23.792Z,3.35
2019-02-06T02:02:33.073Z,3.27
2019-02-06T02:07:45.832Z,3.28
2019-02-06T02:12:59.458Z,3.23
2019-02-06T02:18:07.373Z,3.24
2019-02-06T02:23:17.241Z,3.22
2019-02-06T02:28:28.486Z,3.22
2019-02-06T02:33:38.536Z,3.22
2019-02-06T02:38:49.466Z,3.32
2019-02-06T02:44:02.450Z,3.34
2019-02-06T02:49:12.459Z,3.25
2019-02-06T02:54:26.863Z,3.26
2019-02-06T02:59:38.910Z,3.22
2019-02-06T03:04:54.952Z,3.23
2019-02-06T03:10:02.764Z,3.23
2019-02-06T03:15:23.627Z,3.23
2019-02-06T03:20:36.299Z,3.24
2019-02-06T03:25:48.949Z,3.23
2019-02-06T03:31:00.782Z,3.17
2019-02-06T03:36:13.038Z,3.14
2019-02-06T03:41:19.864Z,3.15
2019-02-06T03:46:33.607Z,3.14
2019-02-06T03:51:43.033Z,3.20
2019-02-06T03:56:57.193Z,3.13
2019-02-06T04:02:08.601Z,3.16
2019-02-06T04:07:15.200Z,3.12
2019-02-06T04:12:30.166Z,3.22
2019-02-06T04:17:44.817Z,3.22
2019-02-06T04:22:59.441Z,3.25
2019-02-06T04:28:11.690Z,3.22
2019-02-06T04:33:26.222Z,3.26
2019-02-06T04:38:40.967Z,3.20
2019-02-06T04:43:50.995Z,3.14
2019-02-06T04:49:00.447Z,3.09
2019-02-06T04:54:11.814Z,3.01
2019-02-06T04:59:23.663Z,3.02
2019-02-06T05:04:42.606Z,3.08
2019-02-06T05:09:54.427Z,3.09
2019-02-06T05:15:05.447Z,3.13
2019-02-06T05:20:36.450Z,3.13
2019-02-06T05:25:47.336Z,3.13
2019-02-06T05:30:59.185Z,3.12
2019-02-06T05:36:08.399Z,3.07
2019-02-06T05:41:17.384Z,3.02
2019-02-06T05:46:27.351Z,3.00
2019-02-06T05:51:42.250Z,3.02
2019-02-06T05:56:54.951Z,2.93
2019-02-06T06:02:08.844Z,2.95
2019-02-06T06:07:20.870Z,2.95
2019-02-06T06:12:31.972Z,2.92
2019-02-06T06:17:44.105Z,2.86
2019-02-06T06:22:56.845Z,2.90
2019-02-06T06:28:04.921Z,2.97
2019-02-06T06:33:14.951Z,2.95
2019-02-06T06:38:24.903Z,3.06
2019-02-06T06:43:33.036Z,3.15
2019-02-06T06:48:42.270Z,3.13
2019-02-06T06:53:52.199Z,2.98
2019-02-06T06:59:03.469Z,3.01
2019-02-06T07:04:16.200Z,3.08
2019-02-06T07:09:26.920Z,3.04
2019-02-06T07:14:39.592Z,3.11
2019-02-06T07:19:48.213Z,3.16
2019-02-06T07:24:59.056Z,3.21
2019-02-06T07:30:08.554Z,3.36
2019-02-06T07:35:19.301Z,3.40
2019-02-06T07:40:31.044Z,3.44
2019-02-06T07:45:43.682Z,3.39
2019-02-06T07:50:50.988Z,3.34
2019-02-06T07:56:02.109Z,3.43
2019-02-06T08:01:10.373Z,3.36
2019-02-06T08:06:23.043Z,3.36
2019-02-06T08:11:37.638Z,3.37
2019-02-06T08:16:52.676Z,3.29
2019-02-06T08:22:06.890Z,3.24
2019-02-06T08:27:21.187Z,3.15
2019-02-06T08:32:38.597Z,3.19
2019-02-06T08:37:51.323Z,3.20
2019-02-06T08:43:02.893Z,3.24
2019-02-06T08:48:08.744Z,3.11
2019-02-06T08:53:17.054Z,3.18
2019-02-06T08:58:25.305Z,3.12
2019-02-06T09:03:41.490Z,3.09
2019-02-06T09:08:59.946Z,3.13
2019-02-06T09:14:03.387Z,3.13
2019-02-06T09:19:22.587Z,3.20
2019-02-06T09:24:40.495Z,3.29
2019-02-06T09:29:58.600Z,3.40
2019-02-06T09:35:09.556Z,3.40
2019-02-06T09:40:24.396Z,3.48
2019-02-06T09:45:37.828Z,3.56
2019-02-06T09:50:50.419Z,3.53
2019-02-06T09:56:06.155Z,3.59
2019-02-06T10:01:33.478Z,3.66
2019-02-06T10:07:03.813Z,3.76
2019-02-06T10:12:19.174Z,3.76
2019-02-06T10:17:27.526Z,3.81
2019-02-06T10:22:41.963Z,3.89
2019-02-06T10:27:59.273Z,4.01
2019-02-06T10:33:13.387Z,4.05
2019-02-06T10:38:20.735Z,4.04
2019-02-06T10:43:32.219Z,4.15
2019-02-06T10:48:38.690Z,4.25
2019-02-06T10:53:45.979Z,4.28
2019-02-06T10:58:55.072Z,4.28
2019-02-06T11:04:09.636Z,4.40
2019-02-06T11:09:21.647Z,4.51
2019-02-06T11:14:38.794Z,4.57
2019-02-06T11:19:47.748Z,4.57
2019-02-06T11:24:58.570Z,4.64
2019-02-06T11:30:07.343Z,4.58
2019-02-06T11:35:18.630Z,4.69
2019-02-06T11:40:30.144Z,4.74
2019-02-06T11:45:45.457Z,4.69
2019-02-06T11:50:54.894Z,4.73
2019-02-06T11:56:07.505Z,4.88
2019-02-06T12:01:25.978Z,4.91
2019-02-06T12:06:35.149Z,4.85
2019-02-06T12:11:52.901Z,5.13
2019-02-06T12:17:04.762Z,5.22
2019-02-06T12:22:12.302Z,5.25
2019-02-06T12:27:20.966Z,5.15
2019-02-06T12:32:36.391Z,5.33
2019-02-06T12:37:48.897Z,5.39
2019-02-06T12:42:58.837Z,5.51
2019-02-06T12:48:06.530Z,5.46
2019-02-06T12:53:17.277Z,5.64
2019-02-06T12:58:26.210Z,5.79
2019-02-06T13:03:37.826Z,5.71
2019-02-06T13:08:54.885Z,5.78
2019-02-06T13:14:05.777Z,5.77
2019-02-06T13:19:15.266Z,5.82
2019-02-06T13:24:31.113Z,5.94
2019-02-06T13:29:42.701Z,5.94
2019-02-06T13:34:55.279Z,6.04
2019-02-06T13:40:07.755Z,6.01
2019-02-06T13:45:23.050Z,5.97
2019-02-06T13:50:34.025Z,6.04
2019-02-06T13:55:45.247Z,5.98
2019-02-06T14:00:53.319Z,6.06
2019-02-06T14:06:01.419Z,6.08
2019-02-06T14:11:09.461Z,6.14
2019-02-06T14:16:19.447Z,5.91
2019-02-06T14:21:25.979Z,5.91
2019-02-06T14:26:55.844Z,5.99
2019-02-06T14:32:53.257Z,6.05
2019-02-06T14:38:33.356Z,6.07
2019-02-06T14:44:40.777Z,5.93
2019-02-06T14:50:27.206Z,6.06
2019-02-06T14:56:20.966Z,6.11
2019-02-06T15:01:54.488Z,6.12
2019-02-06T15:07:45.805Z,6.15
2019-02-06T15:13:28.190Z,6.15
2019-02-06T15:19:16.997Z,6.05
2019-02-06T15:25:12.012Z,6.03
2019-02-06T15:30:55.235Z,6.13
2019-02-06T15:36:37.010Z,6.13
2019-02-06T15:42:04.939Z,6.06
2019-02-06T15:47:47.429Z,6.06
2019-02-06T15:53:25.138Z,6.07
2019-02-06T15:59:05.197Z,6.16
2019-02-06T16:04:58.052Z,6.21
2019-02-06T16:10:45.131Z,6.20
2019-02-06T16:16:24.473Z,6.11
2019-02-06T16:21:59.500Z,6.08
2019-02-06T16:27:40.805Z,6.11
2019-02-06T16:33:16.327Z,6.15
2019-02-06T16:39:02.193Z,6.19
2019-02-06T16:44:46.548Z,6.24
2019-02-06T16:50:36.804Z,6.22
2019-02-06T16:56:10.896Z,6.21
2019-02-06T17:01:48.721Z,6.24
2019-02-06T17:07:38.382Z,6.22
2019-02-06T17:13:15.436Z,6.22
2019-02-06T17:19:28.813Z,6.21
2019-02-06T17:25:15.921Z,6.25
2019-02-06T17:30:41.126Z,6.29
2019-02-06T17:36:19.517Z,6.30
2019-02-06T17:41:40.523Z,6.30
2019-02-06T17:47:13.718Z,6.40
2019-02-06T17:52:58.264Z,6.38
2019-02-06T17:58:10.945Z,6.41
2019-02-06T18:03:25.882Z,6.37
2019-02-06T18:08:35.882Z,6.34
2019-02-06T18:13:47.572Z,6.34
2019-02-06T18:19:00.071Z,6.38
2019-02-06T18:24:07.637Z,6.40
2019-02-06T18:29:23.302Z,6.48
2019-02-06T18:34:33.468Z,6.49
2019-02-06T18:39:43.318Z,6.53
2019-02-06T18:44:56.772Z,6.54
2019-02-06T18:50:06.956Z,6.56
2019-02-06T18:55:16.273Z,6.51
2019-02-06T19:00:34.310Z,6.49
2019-02-06T19:05:46.782Z,6.53
2019-02-06T19:10:56.871Z,6.51
2019-02-06T19:16:05.860Z,6.51
2019-02-06T19:21:16.587Z,6.58
2019-02-06T19:26:26.567Z,6.58
2019-02-06T19:31:40.358Z,6.56
2019-02-06T19:36:52.899Z,6.61
2019-02-06T19:42:02.471Z,6.56
2019-02-06T19:47:11.450Z,6.62
2019-02-06T19:52:24.273Z,6.55
2019-02-06T19:57:39.564Z,6.56
2019-02-06T20:02:52.423Z,6.55
2019-02-06T20:09:05.509Z,6.55
2019-02-06T20:14:17.674Z,6.60
2019-02-06T20:19:27.567Z,6.61
2019-02-06T20:24:41.862Z,6.62
2019-02-06T20:29:53.597Z,6.60
2019-02-06T20:35:05.422Z,6.61
2019-02-06T20:40:29.924Z,6.60
2019-02-06T20:45:39.832Z,6.63
2019-02-06T20:50:51.595Z,6.64
2019-02-06T20:56:06.438Z,6.67
2019-02-06T21:01:18.258Z,6.64
2019-02-06T21:06:27.731Z,6.70
2019-02-06T21:11:44.172Z,6.69
2019-02-06T21:16:54.186Z,6.70
2019-02-06T21:22:07.656Z,6.70
2019-02-06T21:27:17.540Z,6.70
2019-02-06T21:32:25.186Z,6.74
2019-02-06T21:37:37.733Z,6.75
2019-02-06T21:42:53.028Z,6.76
2019-02-06T21:48:04.778Z,6.75
2019-02-06T21:53:20.239Z,6.75
2019-02-06T21:58:32.742Z,6.76
2019-02-06T22:03:43.589Z,6.76
2019-02-06T22:08:55.273Z,6.75
2019-02-06T22:14:12.017Z,6.73
2019-02-06T22:19:23.307Z,6.72
2019-02-06T22:24:34.932Z,6.72
2019-02-06T22:29:48.357Z,6.72
2019-02-06T22:35:07.558Z,6.71
2019-02-06T22:40:36.727Z,6.72
2019-02-06T22:45:44.960Z,6.71
2019-02-06T22:50:56.803Z,6.69
2019-02-06T22:56:09.438Z,6.72
2019-02-06T23:01:36.774Z,6.72
2019-02-06T23:06:47.143Z,6.68
2019-02-06T23:12:03.357Z,6.68
2019-02-06T23:17:14.288Z,6.72
2019-02-06T23:22:27.062Z,6.72
2019-02-06T23:27:36.958Z,6.72
2019-02-06T23:32:48.173Z,6.72
2019-02-06T23:37:56.536Z,6.73
2019-02-06T23:43:06.117Z,6.73
2019-02-06T23:48:16.837Z,6.71
2019-02-06T23:53:34.465Z,6.70
2019-02-06T23:58:46.264Z,6.72
